header
chart

Reported and forecast weather at local airports

Important: not to be used for flight planning purposes.


EGBB METAR fetched   Wednesday 22nd Feb @ 15:52:22
EGBB 221520Z 28008KT 240V310 9999 FEW013 SCT025 12/10 Q1005

EGCC METAR fetched   Wednesday 22nd Feb @ 15:52:20
EGCC 221520Z AUTO 28012KT 9999 BKN018 OVC032 09/05 Q1005 NOSIG

EGGP METAR fetched   Wednesday 22nd Feb @ 15:52:20
EGGP 221520Z 27013KT 9999 -DZ FEW020 SCT027 BKN039 10/07 Q1005

EGNH METAR fetched   Wednesday 22nd Feb @ 15:52:21
EGNH 221520Z 26015KT 9999 FEW045 08/06 Q1004

EGNM METAR fetched   Wednesday 22nd Feb @ 15:52:22
EGNM 221520Z 27020G32KT 240V310 9999 SCT025 07/03 Q1001

EGOV METAR fetched   Wednesday 22nd Feb @ 15:52:23
EGOV 221450Z 21010KT 9999 FEW030 OVC065 09/08 Q1005 BLU NOSIG


EGBB TAF fetched   Wednesday 22nd Feb @ 15:52:22
TAF EGBB 221104Z 2212/2312 27014KT 9999 FEW015 SCT020 TEMPO 2212/2307 6000 RA BKN014 BECMG 2217/2220 20006KT BECMG 2221/2224 22015G30KT BECMG 2303/2306 25030G40KT TEMPO 2307/2309 4500 +RA BKN009 BECMG 2309/2312 27030G50KT TEMPO 2309/2312 27040G60KT

EGCC TAF fetched   Wednesday 22nd Feb @ 15:52:20
TAF EGCC 221104Z 2212/2318 26010KT 9999 FEW015 SCT035 PROB30 TEMPO 2212/2218 8000 -RA BECMG 2216/2219 19005KT TEMPO 2218/2224 6000 RA BKN012 BECMG 2300/2303 23015G25KT BKN014 BECMG 2306/2309 SCT025 TEMPO 2306/2308 4000 +RA BKN009 BECMG 2308/2311 25025G35KT PROB40 TEMPO 2308/2318 6000 SHRA BKN014 BECMG 2312/2315 26035G50KT BECMG 2315/2318 30015KT

EGGP TAF fetched   Wednesday 22nd Feb @ 15:52:21
TAF TAF EGGP 221104Z 2212/2312 27016KT 9999 SCT025 BECMG 2215/2218 16004KT TEMPO 2220/2306 8000 -RA BKN014 BECMG 2300/2303 22015G25KT TEMPO 2306/2308 4000 +RA BKN009 PROB40 TEMPO 2308/2312 6000 SHRA BKN014 BECMG 2309/2312 29045G55KT

EGNM TAF fetched   Wednesday 22nd Feb @ 15:52:22
TAF TAF EGNM 221105Z 2212/2312 28025G35KT 9999 SCT015 BECMG 2214/2217 27015G25KT BECMG 2217/2222 VRB05KT BECMG 2222/2301 13010KT 6000 RA BKN008 TEMPO 2300/2304 3000 +RA BKN004 BECMG 2302/2304 20015G25KT 9999 NSW SCT010 TEMPO 2308/2312 4000 RA BKN006 BECMG 2311/2312 28015G25KT PROB30 TEMPO 2311/2312 1400 RASN BKN002

EGOV TAF fetched   Wednesday 22nd Feb @ 15:52:23
TAF TAF EGOV 010100Z 3021/0102 CNL

Every effort is made to ensure that this information is free from errors but as it is provided by a third party the accuracy of the reports cannot be guaranteed.